sensor_id;sensor_type;location;lat;lon;timestamp;temperature;humidity
5276;DHT22;2661;50.786;12.728;2023-11-19T00:00:28;5.50;99.90
5276;DHT22;2661;50.786;12.728;2023-11-19T00:02:54;5.50;99.90
5276;DHT22;2661;50.786;12.728;2023-11-19T00:05:21;5.40;99.90
5276;DHT22;2661;50.786;12.728;2023-11-19T00:07:48;5.50;99.90
5276;DHT22;2661;50.786;12.728;2023-11-19T00:10:15;5.50;99.90
5276;DHT22;2661;50.786;12.728;2023-11-19T00:12:46;5.50;99.90
5276;DHT22;2661;50.786;12.728;2023-11-19T00:15:14;5.50;99.90
5276;DHT22;2661;50.786;12.728;2023-11-19T00:17:41;5.60;99.90
5276;DHT22;2661;50.786;12.728;2023-11-19T00:20:15;5.60;99.90
5276;DHT22;2661;50.786;12.728;2023-11-19T00:22:42;5.60;99.90
5276;DHT22;2661;50.786;12.728;2023-11-19T00:25:12;5.60;99.90
5276;DHT22;2661;50.786;12.728;2023-11-19T00:27:38;5.70;99.90
5276;DHT22;2661;50.786;12.728;2023-11-19T00:30:05;5.70;99.90
5276;DHT22;2661;50.786;12.728;2023-11-19T00:32:32;5.70;99.90
5276;DHT22;2661;50.786;12.728;2023-11-19T00:34:59;5.70;99.90
5276;DHT22;2661;50.786;12.728;2023-11-19T00:37:26;5.70;99.90
5276;DHT22;2661;50.786;12.728;2023-11-19T00:39:53;5.80;99.90
5276;DHT22;2661;50.786;12.728;2023-11-19T00:42:19;5.70;99.90
5276;DHT22;2661;50.786;12.728;2023-11-19T00:44:47;5.70;99.90
5276;DHT22;2661;50.786;12.728;2023-11-19T00:47:16;5.70;99.90
5276;DHT22;2661;50.786;12.728;2023-11-19T00:49:43;5.70;99.90
5276;DHT22;2661;50.786;12.728;2023-11-19T00:52:09;5.70;99.90
5276;DHT22;2661;50.786;12.728;2023-11-19T00:54:36;5.70;99.90
5276;DHT22;2661;50.786;12.728;2023-11-19T00:57:03;5.70;99.90
5276;DHT22;2661;50.786;12.728;2023-11-19T00:59:30;5.70;99.90
5276;DHT22;2661;50.786;12.728;2023-11-19T01:01:56;5.70;99.90
5276;DHT22;2661;50.786;12.728;2023-11-19T01:04:23;5.70;99.90
5276;DHT22;2661;50.786;12.728;2023-11-19T01:06:50;5.70;99.90
5276;DHT22;2661;50.786;12.728;2023-11-19T01:09:17;5.70;99.90
5276;DHT22;2661;50.786;12.728;2023-11-19T01:11:44;5.80;99.90
5276;DHT22;2661;50.786;12.728;2023-11-19T01:14:11;5.80;99.90
5276;DHT22;2661;50.786;12.728;2023-11-19T01:16:40;5.80;99.90
5276;DHT22;2661;50.786;12.728;2023-11-19T01:19:07;5.90;99.90
5276;DHT22;2661;50.786;12.728;2023-11-19T01:21:43;5.80;99.90
5276;DHT22;2661;50.786;12.728;2023-11-19T01:24:10;5.90;99.90
5276;DHT22;2661;50.786;12.728;2023-11-19T01:26:38;5.90;99.90
5276;DHT22;2661;50.786;12.728;2023-11-19T01:29:05;5.90;99.90
5276;DHT22;2661;50.786;12.728;2023-11-19T01:31:32;5.90;99.90
5276;DHT22;2661;50.786;12.728;2023-11-19T01:34:00;5.90;99.90
5276;DHT22;2661;50.786;12.728;2023-11-19T01:36:27;5.90;99.90
5276;DHT22;2661;50.786;12.728;2023-11-19T01:38:54;5.90;99.90
5276;DHT22;2661;50.786;12.728;2023-11-19T01:41:21;5.90;99.90
5276;DHT22;2661;50.786;12.728;2023-11-19T01:43:47;6.00;99.90
5276;DHT22;2661;50.786;12.728;2023-11-19T01:46:14;5.90;99.90
5276;DHT22;2661;50.786;12.728;2023-11-19T01:48:42;5.90;99.90
5276;DHT22;2661;50.786;12.728;2023-11-19T01:51:10;6.00;99.90
5276;DHT22;2661;50.786;12.728;2023-11-19T01:53:37;5.90;99.90
5276;DHT22;2661;50.786;12.728;2023-11-19T01:56:08;6.00;99.90
5276;DHT22;2661;50.786;12.728;2023-11-19T01:58:36;6.00;99.90
5276;DHT22;2661;50.786;12.728;2023-11-19T02:01:03;6.00;99.90
5276;DHT22;2661;50.786;12.728;2023-11-19T02:03:31;6.00;99.90
5276;DHT22;2661;50.786;12.728;2023-11-19T02:05:59;6.00;99.90
5276;DHT22;2661;50.786;12.728;2023-11-19T02:08:26;6.00;99.90
5276;DHT22;2661;50.786;12.728;2023-11-19T02:10:53;6.00;99.90
5276;DHT22;2661;50.786;12.728;2023-11-19T02:13:24;6.00;99.90
5276;DHT22;2661;50.786;12.728;2023-11-19T02:15:51;6.00;99.90
5276;DHT22;2661;50.786;12.728;2023-11-19T02:20:45;6.00;99.90
5276;DHT22;2661;50.786;12.728;2023-11-19T02:23:14;6.00;99.90
5276;DHT22;2661;50.786;12.728;2023-11-19T02:25:41;6.00;99.90
5276;DHT22;2661;50.786;12.728;2023-11-19T02:28:08;6.00;99.90
5276;DHT22;2661;50.786;12.728;2023-11-19T02:30:34;6.00;99.90
5276;DHT22;2661;50.786;12.728;2023-11-19T02:33:01;6.00;99.90
5276;DHT22;2661;50.786;12.728;2023-11-19T02:35:32;6.00;99.90
5276;DHT22;2661;50.786;12.728;2023-11-19T02:38:00;6.10;99.90
5276;DHT22;2661;50.786;12.728;2023-11-19T02:40:27;6.00;99.90
5276;DHT22;2661;50.786;12.728;2023-11-19T02:42:54;6.00;99.90
5276;DHT22;2661;50.786;12.728;2023-11-19T02:45:24;6.00;99.90
5276;DHT22;2661;50.786;12.728;2023-11-19T02:47:52;6.00;99.90
5276;DHT22;2661;50.786;12.728;2023-11-19T02:50:19;5.90;99.90
5276;DHT22;2661;50.786;12.728;2023-11-19T02:52:52;6.00;99.90
5276;DHT22;2661;50.786;12.728;2023-11-19T02:55:19;6.00;1.00
5276;DHT22;2661;50.786;12.728;2023-11-19T02:57:46;6.00;1.00
5276;DHT22;2661;50.786;12.728;2023-11-19T03:02:41;6.00;1.00
5276;DHT22;2661;50.786;12.728;2023-11-19T03:05:13;6.10;1.00
5276;DHT22;2661;50.786;12.728;2023-11-19T03:07:41;6.10;1.00
5276;DHT22;2661;50.786;12.728;2023-11-19T03:10:11;6.20;1.00
5276;DHT22;2661;50.786;12.728;2023-11-19T03:12:41;6.20;1.00
5276;DHT22;2661;50.786;12.728;2023-11-19T03:15:09;6.20;1.00
5276;DHT22;2661;50.786;12.728;2023-11-19T03:17:38;6.20;99.90
5276;DHT22;2661;50.786;12.728;2023-11-19T03:20:05;6.10;99.90
5276;DHT22;2661;50.786;12.728;2023-11-19T03:22:38;6.20;99.90
5276;DHT22;2661;50.786;12.728;2023-11-19T03:25:05;6.20;99.90
5276;DHT22;2661;50.786;12.728;2023-11-19T03:27:37;6.20;1.00
5276;DHT22;2661;50.786;12.728;2023-11-19T03:30:10;6.10;1.00
5276;DHT22;2661;50.786;12.728;2023-11-19T03:32:37;6.20;1.00
5276;DHT22;2661;50.786;12.728;2023-11-19T03:35:05;6.10;1.00
5276;DHT22;2661;50.786;12.728;2023-11-19T03:37:33;6.20;1.00
5276;DHT22;2661;50.786;12.728;2023-11-19T03:40:00;6.20;99.90
5276;DHT22;2661;50.786;12.728;2023-11-19T03:42:29;6.20;99.90
5276;DHT22;2661;50.786;12.728;2023-11-19T03:44:58;6.20;1.00
5276;DHT22;2661;50.786;12.728;2023-11-19T03:47:26;6.20;1.00
5276;DHT22;2661;50.786;12.728;2023-11-19T03:49:52;6.20;1.00
5276;DHT22;2661;50.786;12.728;2023-11-19T03:52:19;6.20;1.00
5276;DHT22;2661;50.786;12.728;2023-11-19T03:54:47;6.20;1.00
5276;DHT22;2661;50.786;12.728;2023-11-19T03:57:13;6.20;1.00
5276;DHT22;2661;50.786;12.728;2023-11-19T03:59:40;6.20;1.00
5276;DHT22;2661;50.786;12.728;2023-11-19T04:02:07;6.30;1.00
5276;DHT22;2661;50.786;12.728;2023-11-19T04:04:34;6.30;1.00
5276;DHT22;2661;50.786;12.728;2023-11-19T04:07:01;6.30;1.00
5276;DHT22;2661;50.786;12.728;2023-11-19T04:09:29;6.30;1.00
5276;DHT22;2661;50.786;12.728;2023-11-19T04:11:56;6.40;1.00
5276;DHT22;2661;50.786;12.728;2023-11-19T04:14:23;6.40;1.00
5276;DHT22;2661;50.786;12.728;2023-11-19T04:16:50;6.40;1.00
5276;DHT22;2661;50.786;12.728;2023-11-19T04:19:20;6.40;1.00
5276;DHT22;2661;50.786;12.728;2023-11-19T04:21:47;6.50;1.00
5276;DHT22;2661;50.786;12.728;2023-11-19T04:24:14;6.50;1.00
5276;DHT22;2661;50.786;12.728;2023-11-19T04:26:41;6.50;1.00
5276;DHT22;2661;50.786;12.728;2023-11-19T04:29:09;6.60;1.00
5276;DHT22;2661;50.786;12.728;2023-11-19T04:31:36;6.60;1.00
5276;DHT22;2661;50.786;12.728;2023-11-19T04:34:02;6.60;1.00
5276;DHT22;2661;50.786;12.728;2023-11-19T04:36:29;6.60;1.00
5276;DHT22;2661;50.786;12.728;2023-11-19T04:38:56;6.70;17.90
5276;DHT22;2661;50.786;12.728;2023-11-19T04:41:22;6.70;99.90
5276;DHT22;2661;50.786;12.728;2023-11-19T04:43:49;6.70;1.00
5276;DHT22;2661;50.786;12.728;2023-11-19T04:46:16;6.60;1.00
5276;DHT22;2661;50.786;12.728;2023-11-19T04:48:43;6.60;1.00
5276;DHT22;2661;50.786;12.728;2023-11-19T04:51:09;6.60;51.70
5276;DHT22;2661;50.786;12.728;2023-11-19T04:53:36;6.60;1.00
5276;DHT22;2661;50.786;12.728;2023-11-19T04:56:09;6.60;1.00
5276;DHT22;2661;50.786;12.728;2023-11-19T04:58:36;6.60;78.70
5276;DHT22;2661;50.786;12.728;2023-11-19T05:01:03;6.50;99.90
5276;DHT22;2661;50.786;12.728;2023-11-19T05:03:31;6.50;1.00
5276;DHT22;2661;50.786;12.728;2023-11-19T05:05:58;6.60;99.90
5276;DHT22;2661;50.786;12.728;2023-11-19T05:08:25;6.70;99.90
5276;DHT22;2661;50.786;12.728;2023-11-19T05:10:52;6.70;99.90
5276;DHT22;2661;50.786;12.728;2023-11-19T05:13:19;6.70;1.00
5276;DHT22;2661;50.786;12.728;2023-11-19T05:15:45;6.70;1.00
5276;DHT22;2661;50.786;12.728;2023-11-19T05:18:12;6.80;1.00
5276;DHT22;2661;50.786;12.728;2023-11-19T05:20:39;6.80;1.00
5276;DHT22;2661;50.786;12.728;2023-11-19T05:23:05;6.80;1.00
5276;DHT22;2661;50.786;12.728;2023-11-19T05:25:32;6.80;1.00
5276;DHT22;2661;50.786;12.728;2023-11-19T05:27:58;6.80;1.00
5276;DHT22;2661;50.786;12.728;2023-11-19T05:30:25;6.90;99.90
5276;DHT22;2661;50.786;12.728;2023-11-19T05:32:52;6.90;1.00
5276;DHT22;2661;50.786;12.728;2023-11-19T05:35:18;6.90;1.00
5276;DHT22;2661;50.786;12.728;2023-11-19T05:37:45;7.00;1.00
5276;DHT22;2661;50.786;12.728;2023-11-19T05:40:11;6.90;17.40
5276;DHT22;2661;50.786;12.728;2023-11-19T05:42:42;7.00;99.90
5276;DHT22;2661;50.786;12.728;2023-11-19T05:45:10;7.00;1.00
5276;DHT22;2661;50.786;12.728;2023-11-19T05:47:38;6.90;1.00
5276;DHT22;2661;50.786;12.728;2023-11-19T05:50:05;7.00;1.00
5276;DHT22;2661;50.786;12.728;2023-11-19T05:52:32;7.00;99.90
5276;DHT22;2661;50.786;12.728;2023-11-19T05:55:00;7.00;21.80
5276;DHT22;2661;50.786;12.728;2023-11-19T05:57:30;7.10;99.90
5276;DHT22;2661;50.786;12.728;2023-11-19T05:59:57;7.10;39.00
5276;DHT22;2661;50.786;12.728;2023-11-19T06:02:25;7.10;1.00
5276;DHT22;2661;50.786;12.728;2023-11-19T06:04:53;7.10;99.90
5276;DHT22;2661;50.786;12.728;2023-11-19T06:07:20;7.10;99.90
5276;DHT22;2661;50.786;12.728;2023-11-19T06:09:46;7.10;99.90
5276;DHT22;2661;50.786;12.728;2023-11-19T06:12:13;7.10;55.80
5276;DHT22;2661;50.786;12.728;2023-11-19T06:14:40;7.10;99.90
5276;DHT22;2661;50.786;12.728;2023-11-19T06:17:07;7.20;1.00
5276;DHT22;2661;50.786;12.728;2023-11-19T06:19:35;7.20;1.00
5276;DHT22;2661;50.786;12.728;2023-11-19T06:22:01;7.20;1.00
5276;DHT22;2661;50.786;12.728;2023-11-19T06:24:28;7.20;99.90
5276;DHT22;2661;50.786;12.728;2023-11-19T06:26:55;7.20;99.90
5276;DHT22;2661;50.786;12.728;2023-11-19T06:29:21;7.20;99.90
5276;DHT22;2661;50.786;12.728;2023-11-19T06:31:48;7.30;99.90
5276;DHT22;2661;50.786;12.728;2023-11-19T06:34:15;7.30;99.90
5276;DHT22;2661;50.786;12.728;2023-11-19T06:36:42;7.30;99.90
5276;DHT22;2661;50.786;12.728;2023-11-19T06:39:11;7.30;99.90
5276;DHT22;2661;50.786;12.728;2023-11-19T06:41:38;7.30;99.90
5276;DHT22;2661;50.786;12.728;2023-11-19T06:44:05;7.30;99.90
5276;DHT22;2661;50.786;12.728;2023-11-19T06:46:32;7.30;1.00
5276;DHT22;2661;50.786;12.728;2023-11-19T06:48:59;7.30;1.00
5276;DHT22;2661;50.786;12.728;2023-11-19T06:51:26;7.40;1.00
5276;DHT22;2661;50.786;12.728;2023-11-19T06:53:53;7.40;99.90
5276;DHT22;2661;50.786;12.728;2023-11-19T06:56:20;7.50;99.90
5276;DHT22;2661;50.786;12.728;2023-11-19T06:58:47;7.50;1.00
5276;DHT22;2661;50.786;12.728;2023-11-19T07:01:17;7.50;1.00
5276;DHT22;2661;50.786;12.728;2023-11-19T07:03:45;7.60;1.00
5276;DHT22;2661;50.786;12.728;2023-11-19T07:06:13;7.60;99.90
5276;DHT22;2661;50.786;12.728;2023-11-19T07:08:42;7.60;99.90
5276;DHT22;2661;50.786;12.728;2023-11-19T07:11:13;7.60;99.90
5276;DHT22;2661;50.786;12.728;2023-11-19T07:13:43;7.70;3.90
5276;DHT22;2661;50.786;12.728;2023-11-19T07:16:13;7.70;1.00
5276;DHT22;2661;50.786;12.728;2023-11-19T07:18:40;7.80;1.00
5276;DHT22;2661;50.786;12.728;2023-11-19T07:21:08;7.80;1.00
5276;DHT22;2661;50.786;12.728;2023-11-19T07:23:36;7.80;1.00
5276;DHT22;2661;50.786;12.728;2023-11-19T07:26:06;7.80;1.00
5276;DHT22;2661;50.786;12.728;2023-11-19T07:28:35;7.80;1.00
5276;DHT22;2661;50.786;12.728;2023-11-19T07:31:01;7.80;1.00
5276;DHT22;2661;50.786;12.728;2023-11-19T07:33:28;7.80;1.00
5276;DHT22;2661;50.786;12.728;2023-11-19T07:35:55;7.80;1.00
5276;DHT22;2661;50.786;12.728;2023-11-19T07:38:22;7.80;1.00
5276;DHT22;2661;50.786;12.728;2023-11-19T07:40:49;7.90;1.00
5276;DHT22;2661;50.786;12.728;2023-11-19T07:43:18;7.90;1.00
5276;DHT22;2661;50.786;12.728;2023-11-19T07:45:45;7.90;1.00
5276;DHT22;2661;50.786;12.728;2023-11-19T07:48:12;8.00;99.90
5276;DHT22;2661;50.786;12.728;2023-11-19T07:50:39;7.90;99.90
5276;DHT22;2661;50.786;12.728;2023-11-19T07:53:07;7.90;99.90
5276;DHT22;2661;50.786;12.728;2023-11-19T07:55:35;7.90;99.90
5276;DHT22;2661;50.786;12.728;2023-11-19T07:58:01;7.90;99.90
5276;DHT22;2661;50.786;12.728;2023-11-19T08:00:28;7.90;99.90
5276;DHT22;2661;50.786;12.728;2023-11-19T08:02:54;7.80;99.90
5276;DHT22;2661;50.786;12.728;2023-11-19T08:05:21;7.90;1.00
5276;DHT22;2661;50.786;12.728;2023-11-19T08:07:50;8.00;1.00
5276;DHT22;2661;50.786;12.728;2023-11-19T08:10:16;8.00;1.00
5276;DHT22;2661;50.786;12.728;2023-11-19T08:12:43;8.10;1.00
5276;DHT22;2661;50.786;12.728;2023-11-19T08:15:10;8.20;1.00
5276;DHT22;2661;50.786;12.728;2023-11-19T08:17:37;8.30;99.90
5276;DHT22;2661;50.786;12.728;2023-11-19T08:20:04;8.30;99.90
5276;DHT22;2661;50.786;12.728;2023-11-19T08:22:31;8.40;99.90
5276;DHT22;2661;50.786;12.728;2023-11-19T08:24:58;8.40;99.90
5276;DHT22;2661;50.786;12.728;2023-11-19T08:27:26;8.40;99.90
5276;DHT22;2661;50.786;12.728;2023-11-19T08:29:53;8.40;99.90
5276;DHT22;2661;50.786;12.728;2023-11-19T08:32:22;8.50;99.90
5276;DHT22;2661;50.786;12.728;2023-11-19T08:34:49;8.50;99.90
5276;DHT22;2661;50.786;12.728;2023-11-19T08:37:16;8.50;99.90
5276;DHT22;2661;50.786;12.728;2023-11-19T08:39:44;8.60;99.90
5276;DHT22;2661;50.786;12.728;2023-11-19T08:42:11;8.60;99.90
5276;DHT22;2661;50.786;12.728;2023-11-19T08:44:37;8.70;99.90
5276;DHT22;2661;50.786;12.728;2023-11-19T08:47:04;8.80;82.90
5276;DHT22;2661;50.786;12.728;2023-11-19T08:49:31;8.80;1.00
5276;DHT22;2661;50.786;12.728;2023-11-19T08:51:57;8.90;1.00
5276;DHT22;2661;50.786;12.728;2023-11-19T08:54:24;8.90;1.00
5276;DHT22;2661;50.786;12.728;2023-11-19T08:56:51;8.90;1.00
5276;DHT22;2661;50.786;12.728;2023-11-19T08:59:17;9.00;1.00
5276;DHT22;2661;50.786;12.728;2023-11-19T09:01:45;8.90;1.00
5276;DHT22;2661;50.786;12.728;2023-11-19T09:04:12;9.00;1.00
5276;DHT22;2661;50.786;12.728;2023-11-19T09:06:39;9.00;1.00
5276;DHT22;2661;50.786;12.728;2023-11-19T09:09:06;9.10;1.00
5276;DHT22;2661;50.786;12.728;2023-11-19T09:11:33;9.10;1.00
5276;DHT22;2661;50.786;12.728;2023-11-19T09:14:00;9.20;1.00
5276;DHT22;2661;50.786;12.728;2023-11-19T09:16:26;9.20;1.00
5276;DHT22;2661;50.786;12.728;2023-11-19T09:18:53;9.30;1.00
5276;DHT22;2661;50.786;12.728;2023-11-19T09:21:20;9.20;99.90
5276;DHT22;2661;50.786;12.728;2023-11-19T09:23:46;9.20;1.00
5276;DHT22;2661;50.786;12.728;2023-11-19T09:26:13;9.20;1.00
5276;DHT22;2661;50.786;12.728;2023-11-19T09:28:40;9.20;1.00
5276;DHT22;2661;50.786;12.728;2023-11-19T09:31:13;9.20;1.00
5276;DHT22;2661;50.786;12.728;2023-11-19T09:33:40;9.30;1.00
5276;DHT22;2661;50.786;12.728;2023-11-19T09:36:07;9.40;1.00
5276;DHT22;2661;50.786;12.728;2023-11-19T09:38:34;9.40;1.00
5276;DHT22;2661;50.786;12.728;2023-11-19T09:41:04;9.40;1.00
5276;DHT22;2661;50.786;12.728;2023-11-19T09:43:35;9.40;1.00
5276;DHT22;2661;50.786;12.728;2023-11-19T09:46:06;9.40;1.00
5276;DHT22;2661;50.786;12.728;2023-11-19T09:48:34;9.40;1.00
5276;DHT22;2661;50.786;12.728;2023-11-19T09:51:01;9.50;1.00
5276;DHT22;2661;50.786;12.728;2023-11-19T09:53:28;9.50;1.00
5276;DHT22;2661;50.786;12.728;2023-11-19T09:55:55;9.50;99.90
5276;DHT22;2661;50.786;12.728;2023-11-19T09:58:22;9.40;99.90
5276;DHT22;2661;50.786;12.728;2023-11-19T10:00:49;9.40;99.90
5276;DHT22;2661;50.786;12.728;2023-11-19T10:03:36;9.40;1.00
5276;DHT22;2661;50.786;12.728;2023-11-19T10:06:08;9.40;1.00
5276;DHT22;2661;50.786;12.728;2023-11-19T10:08:38;9.40;1.00
5276;DHT22;2661;50.786;12.728;2023-11-19T10:11:08;9.40;1.00
5276;DHT22;2661;50.786;12.728;2023-11-19T10:13:37;9.40;1.00
5276;DHT22;2661;50.786;12.728;2023-11-19T10:16:13;9.50;1.00
5276;DHT22;2661;50.786;12.728;2023-11-19T10:18:47;9.60;1.00
5276;DHT22;2661;50.786;12.728;2023-11-19T10:21:14;9.60;1.00
5276;DHT22;2661;50.786;12.728;2023-11-19T10:23:53;9.70;1.00
5276;DHT22;2661;50.786;12.728;2023-11-19T10:26:20;9.80;99.90
5276;DHT22;2661;50.786;12.728;2023-11-19T10:28:47;9.90;56.80
5276;DHT22;2661;50.786;12.728;2023-11-19T10:31:15;9.90;27.40
5276;DHT22;2661;50.786;12.728;2023-11-19T10:33:42;10.00;1.00
5276;DHT22;2661;50.786;12.728;2023-11-19T10:36:11;10.00;1.00
5276;DHT22;2661;50.786;12.728;2023-11-19T10:38:39;10.00;1.00
5276;DHT22;2661;50.786;12.728;2023-11-19T10:41:05;10.10;99.90
5276;DHT22;2661;50.786;12.728;2023-11-19T10:43:44;10.20;99.90
5276;DHT22;2661;50.786;12.728;2023-11-19T10:46:12;10.30;99.90
5276;DHT22;2661;50.786;12.728;2023-11-19T10:48:39;10.50;99.90
5276;DHT22;2661;50.786;12.728;2023-11-19T10:51:07;10.50;99.90
5276;DHT22;2661;50.786;12.728;2023-11-19T10:53:35;10.50;99.90
5276;DHT22;2661;50.786;12.728;2023-11-19T10:56:02;10.60;65.30
5276;DHT22;2661;50.786;12.728;2023-11-19T10:58:31;10.60;19.70
5276;DHT22;2661;50.786;12.728;2023-11-19T11:01:00;10.60;1.00
5276;DHT22;2661;50.786;12.728;2023-11-19T11:03:29;10.70;1.00
5276;DHT22;2661;50.786;12.728;2023-11-19T11:05:58;10.70;39.40
5276;DHT22;2661;50.786;12.728;2023-11-19T11:08:25;10.60;18.20
5276;DHT22;2661;50.786;12.728;2023-11-19T11:10:53;10.70;31.30
5276;DHT22;2661;50.786;12.728;2023-11-19T11:13:24;10.70;20.80
5276;DHT22;2661;50.786;12.728;2023-11-19T11:15:51;10.70;20.40
5276;DHT22;2661;50.786;12.728;2023-11-19T11:18:17;10.70;1.00
5276;DHT22;2661;50.786;12.728;2023-11-19T11:20:47;10.70;1.00
5276;DHT22;2661;50.786;12.728;2023-11-19T11:23:37;10.70;4.60
5276;DHT22;2661;50.786;12.728;2023-11-19T11:28:54;10.70;1.00
5276;DHT22;2661;50.786;12.728;2023-11-19T11:31:26;10.60;1.00
5276;DHT22;2661;50.786;12.728;2023-11-19T11:36:29;10.60;1.00
5276;DHT22;2661;50.786;12.728;2023-11-19T11:38:57;10.60;1.00
5276;DHT22;2661;50.786;12.728;2023-11-19T11:41:26;10.60;14.20
5276;DHT22;2661;50.786;12.728;2023-11-19T11:43:56;10.50;1.00
5276;DHT22;2661;50.786;12.728;2023-11-19T11:49:00;10.50;48.10
5276;DHT22;2661;50.786;12.728;2023-11-19T11:57:02;10.40;6.10
5276;DHT22;2661;50.786;12.728;2023-11-19T12:02:09;10.20;99.90
5276;DHT22;2661;50.786;12.728;2023-11-19T12:04:36;10.10;99.90
5276;DHT22;2661;50.786;12.728;2023-11-19T12:07:03;10.00;99.90
5276;DHT22;2661;50.786;12.728;2023-11-19T12:09:30;9.90;1.00
5276;DHT22;2661;50.786;12.728;2023-11-19T12:12:07;9.80;1.00
5276;DHT22;2661;50.786;12.728;2023-11-19T12:20:02;9.70;24.50
5276;DHT22;2661;50.786;12.728;2023-11-19T12:22:29;9.60;21.20
5276;DHT22;2661;50.786;12.728;2023-11-19T12:24:56;9.60;1.00
5276;DHT22;2661;50.786;12.728;2023-11-19T12:27:23;9.50;1.00
5276;DHT22;2661;50.786;12.728;2023-11-19T12:29:49;9.50;1.00
5276;DHT22;2661;50.786;12.728;2023-11-19T12:32:16;9.50;99.90
5276;DHT22;2661;50.786;12.728;2023-11-19T12:34:44;9.50;1.00
5276;DHT22;2661;50.786;12.728;2023-11-19T12:37:11;9.60;1.00
5276;DHT22;2661;50.786;12.728;2023-11-19T12:39:37;9.70;1.00
5276;DHT22;2661;50.786;12.728;2023-11-19T12:42:04;9.70;99.90
5276;DHT22;2661;50.786;12.728;2023-11-19T12:44:31;9.80;99.90
5276;DHT22;2661;50.786;12.728;2023-11-19T12:47:03;9.80;99.90
5276;DHT22;2661;50.786;12.728;2023-11-19T12:49:30;9.90;99.90
5276;DHT22;2661;50.786;12.728;2023-11-19T12:51:57;9.90;99.90
5276;DHT22;2661;50.786;12.728;2023-11-19T12:54:34;10.00;99.90
5276;DHT22;2661;50.786;12.728;2023-11-19T12:57:01;10.00;99.90
5276;DHT22;2661;50.786;12.728;2023-11-19T12:59:28;10.00;99.90
5276;DHT22;2661;50.786;12.728;2023-11-19T13:01:55;9.90;99.90
5276;DHT22;2661;50.786;12.728;2023-11-19T13:04:23;10.00;99.90
5276;DHT22;2661;50.786;12.728;2023-11-19T13:06:51;10.00;99.90
5276;DHT22;2661;50.786;12.728;2023-11-19T13:11:53;10.00;99.90
5276;DHT22;2661;50.786;12.728;2023-11-19T13:14:20;10.00;99.90
5276;DHT22;2661;50.786;12.728;2023-11-19T13:16:47;10.10;37.10
5276;DHT22;2661;50.786;12.728;2023-11-19T13:19:15;10.10;27.30
5276;DHT22;2661;50.786;12.728;2023-11-19T13:21:42;10.00;41.00
5276;DHT22;2661;50.786;12.728;2023-11-19T13:24:10;10.00;49.90
5276;DHT22;2661;50.786;12.728;2023-11-19T13:26:37;10.00;43.90
5276;DHT22;2661;50.786;12.728;2023-11-19T13:29:03;10.00;40.10
5276;DHT22;2661;50.786;12.728;2023-11-19T13:31:30;9.90;41.30
5276;DHT22;2661;50.786;12.728;2023-11-19T13:33:57;9.90;37.70
5276;DHT22;2661;50.786;12.728;2023-11-19T13:36:25;9.80;1.60
5276;DHT22;2661;50.786;12.728;2023-11-19T13:38:53;9.70;1.10
5276;DHT22;2661;50.786;12.728;2023-11-19T13:41:25;9.70;35.30
5276;DHT22;2661;50.786;12.728;2023-11-19T13:43:52;9.70;1.00
5276;DHT22;2661;50.786;12.728;2023-11-19T13:46:19;9.70;19.70
5276;DHT22;2661;50.786;12.728;2023-11-19T13:48:46;9.60;1.00
5276;DHT22;2661;50.786;12.728;2023-11-19T13:51:15;9.60;15.80
5276;DHT22;2661;50.786;12.728;2023-11-19T13:53:41;9.60;37.70
5276;DHT22;2661;50.786;12.728;2023-11-19T13:56:12;9.60;29.60
5276;DHT22;2661;50.786;12.728;2023-11-19T13:58:39;9.60;41.10
5276;DHT22;2661;50.786;12.728;2023-11-19T14:01:06;9.50;57.00
5276;DHT22;2661;50.786;12.728;2023-11-19T14:03:33;9.50;1.00
5276;DHT22;2661;50.786;12.728;2023-11-19T14:06:01;9.40;55.40
5276;DHT22;2661;50.786;12.728;2023-11-19T14:08:28;9.40;1.00
5276;DHT22;2661;50.786;12.728;2023-11-19T14:10:54;9.50;42.90
5276;DHT22;2661;50.786;12.728;2023-11-19T14:13:23;9.50;71.00
5276;DHT22;2661;50.786;12.728;2023-11-19T14:15:50;9.50;24.00
5276;DHT22;2661;50.786;12.728;2023-11-19T14:18:17;9.50;1.00
5276;DHT22;2661;50.786;12.728;2023-11-19T14:20:44;9.50;38.40
5276;DHT22;2661;50.786;12.728;2023-11-19T14:23:11;9.50;1.00
5276;DHT22;2661;50.786;12.728;2023-11-19T14:25:37;9.50;47.20
5276;DHT22;2661;50.786;12.728;2023-11-19T14:28:04;9.50;62.80
5276;DHT22;2661;50.786;12.728;2023-11-19T14:30:32;9.60;21.20
5276;DHT22;2661;50.786;12.728;2023-11-19T14:33:00;9.60;30.00
5276;DHT22;2661;50.786;12.728;2023-11-19T14:35:27;9.60;1.00
5276;DHT22;2661;50.786;12.728;2023-11-19T14:37:53;9.70;55.90
5276;DHT22;2661;50.786;12.728;2023-11-19T14:40:20;9.80;1.00
5276;DHT22;2661;50.786;12.728;2023-11-19T14:42:48;9.80;23.80
5276;DHT22;2661;50.786;12.728;2023-11-19T14:45:14;9.70;17.00
5276;DHT22;2661;50.786;12.728;2023-11-19T14:47:41;9.70;1.00
5276;DHT22;2661;50.786;12.728;2023-11-19T14:50:07;9.70;25.80
5276;DHT22;2661;50.786;12.728;2023-11-19T14:52:35;9.60;49.80
5276;DHT22;2661;50.786;12.728;2023-11-19T14:55:02;9.60;1.00
5276;DHT22;2661;50.786;12.728;2023-11-19T14:57:30;9.50;1.00
5276;DHT22;2661;50.786;12.728;2023-11-19T14:59:57;9.50;1.00
5276;DHT22;2661;50.786;12.728;2023-11-19T15:02:24;9.50;50.20
5276;DHT22;2661;50.786;12.728;2023-11-19T15:04:50;9.50;34.60
5276;DHT22;2661;50.786;12.728;2023-11-19T15:07:17;9.60;13.50
5276;DHT22;2661;50.786;12.728;2023-11-19T15:09:44;9.60;1.00
5276;DHT22;2661;50.786;12.728;2023-11-19T15:12:12;9.50;9.40
5276;DHT22;2661;50.786;12.728;2023-11-19T15:14:38;9.40;1.00
5276;DHT22;2661;50.786;12.728;2023-11-19T15:17:05;9.40;1.00
5276;DHT22;2661;50.786;12.728;2023-11-19T15:19:33;9.40;1.00
5276;DHT22;2661;50.786;12.728;2023-11-19T15:22:00;9.30;1.00
5276;DHT22;2661;50.786;12.728;2023-11-19T15:24:31;9.30;29.00
5276;DHT22;2661;50.786;12.728;2023-11-19T15:26:57;9.30;1.00
5276;DHT22;2661;50.786;12.728;2023-11-19T15:29:27;9.30;1.00
5276;DHT22;2661;50.786;12.728;2023-11-19T15:31:55;9.20;52.30
5276;DHT22;2661;50.786;12.728;2023-11-19T15:34:21;9.20;1.00
5276;DHT22;2661;50.786;12.728;2023-11-19T15:36:48;9.20;1.00
5276;DHT22;2661;50.786;12.728;2023-11-19T15:39:15;9.30;35.60
5276;DHT22;2661;50.786;12.728;2023-11-19T15:41:41;9.30;1.00
5276;DHT22;2661;50.786;12.728;2023-11-19T15:44:08;9.20;1.00
5276;DHT22;2661;50.786;12.728;2023-11-19T15:46:35;9.20;11.90
5276;DHT22;2661;50.786;12.728;2023-11-19T15:49:02;9.10;3.10
5276;DHT22;2661;50.786;12.728;2023-11-19T15:51:29;9.10;1.00
5276;DHT22;2661;50.786;12.728;2023-11-19T15:53:56;9.10;1.00
5276;DHT22;2661;50.786;12.728;2023-11-19T15:56:22;9.10;1.00
5276;DHT22;2661;50.786;12.728;2023-11-19T15:58:49;9.00;1.00
5276;DHT22;2661;50.786;12.728;2023-11-19T16:01:17;8.90;7.80
5276;DHT22;2661;50.786;12.728;2023-11-19T16:03:44;8.90;1.00
5276;DHT22;2661;50.786;12.728;2023-11-19T16:06:14;8.80;46.10
5276;DHT22;2661;50.786;12.728;2023-11-19T16:08:41;8.80;8.50
5276;DHT22;2661;50.786;12.728;2023-11-19T16:11:09;8.70;1.00
5276;DHT22;2661;50.786;12.728;2023-11-19T16:13:36;8.60;1.00
5276;DHT22;2661;50.786;12.728;2023-11-19T16:16:03;8.60;1.00
5276;DHT22;2661;50.786;12.728;2023-11-19T16:18:31;8.50;16.20
5276;DHT22;2661;50.786;12.728;2023-11-19T16:20:58;8.40;37.80
5276;DHT22;2661;50.786;12.728;2023-11-19T16:23:25;8.40;40.40
5276;DHT22;2661;50.786;12.728;2023-11-19T16:25:53;8.40;50.50
5276;DHT22;2661;50.786;12.728;2023-11-19T16:28:19;8.30;90.10
5276;DHT22;2661;50.786;12.728;2023-11-19T16:30:49;8.30;99.90
5276;DHT22;2661;50.786;12.728;2023-11-19T16:33:17;8.30;79.40
5276;DHT22;2661;50.786;12.728;2023-11-19T16:35:56;8.30;53.40
5276;DHT22;2661;50.786;12.728;2023-11-19T16:38:24;8.20;16.40